Time;durP1;ratioP1;P1;durP2;ratioP2;P2;SDS_P1;SDS_P2;PMS_P1;PMS_P2;Temp;Humidity;BMP_temperature;BMP_pressure;BME280_temperature;BME280_humidity;BME280_pressure;Samples;Min_cycle;Max_cycle;Signal;HPM_P1;HPM_P2
2022/04/01 00:02:03;;;;;;;21.33;2.88;;;;;;;18.83;60.26;97803.50;7311777;19;129282;-37
2022/04/01 00:04:29;;;;;;;32.65;3.72;;;;;;;18.88;60.30;97810.81;7313497;19;129169;-37
2022/04/01 00:06:54;;;;;;;22.63;2.53;;;;;;;18.84;60.25;97807.72;7310080;19;159254;-35
2022/04/01 00:09:19;;;;;;;22.83;2.95;;;;;;;18.87;60.68;97804.81;7310000;19;157562;-39
2022/04/01 00:11:44;;;;;;;20.02;2.45;;;;;;;18.82;60.30;97796.69;7310616;19;155826;-37
2022/04/01 00:14:10;;;;;;;21.40;2.53;;;;;;;18.86;60.48;97799.75;7311424;19;155110;-37
2022/04/01 00:16:35;;;;;;;28.65;3.65;;;;;;;18.87;60.33;97799.59;7309144;19;131032;-40
2022/04/01 00:19:00;;;;;;;29.65;3.72;;;;;;;18.80;60.27;97793.44;7309247;19;137877;-35
2022/04/01 00:21:26;;;;;;;23.00;2.92;;;;;;;18.86;60.59;97792.75;7309516;19;153448;-44
2022/04/01 00:23:51;;;;;;;24.63;2.63;;;;;;;18.85;60.33;97790.31;7311777;19;144983;-36
2022/04/01 00:26:16;;;;;;;24.58;3.10;;;;;;;18.84;60.63;97799.91;7311167;19;129697;-38
2022/04/01 00:28:42;;;;;;;28.27;3.37;;;;;;;18.71;60.82;97776.19;7307529;19;159211;-41
2022/04/01 00:31:09;;;;;;;26.65;3.58;;;;;;;18.85;60.44;97798.97;7307061;19;147332;-41
2022/04/01 00:33:34;;;;;;;;;;;;;;;18.84;61.88;97797.31;7312356;19;129199;-34
2022/04/01 00:35:59;;;;;;;15.00;2.13;;;;;;;18.84;60.67;97799.91;7309011;19;158386;-36
2022/04/01 00:38:24;;;;;;;24.57;2.97;;;;;;;18.84;60.31;97799.91;7307523;19;158530;-47
2022/04/01 00:40:51;;;;;;;21.63;2.65;;;;;;;18.74;60.16;97786.25;7310020;19;137019;-34
2022/04/01 00:43:24;;;;;;;24.67;3.05;;;;;;;18.84;60.85;97807.72;7310626;19;128905;-40
2022/04/01 00:45:49;;;;;;;27.92;3.17;;;;;;;18.74;60.50;97788.06;7310662;19;129207;-36
2022/04/01 00:48:17;;;;;;;29.17;3.40;;;;;;;18.83;60.27;97802.69;7307821;19;158462;-39
2022/04/01 00:50:42;;;;;;;21.58;2.97;;;;;;;18.81;60.91;97795.03;7310671;19;129357;-37
2022/04/01 00:53:08;;;;;;;25.70;3.15;;;;;;;18.84;60.19;97799.91;7311002;19;129357;-35
2022/04/01 00:55:33;;;;;;;31.17;3.63;;;;;;;18.86;60.35;97807.56;7309562;19;129640;-37
2022/04/01 00:57:59;;;;;;;34.08;3.72;;;;;;;18.85;60.85;97806.75;7309242;19;129445;-43
2022/04/01 01:00:25;;;;;;;22.30;3.22;;;;;;;18.83;60.21;97808.72;7310221;19;129602;-38
2022/04/01 01:02:50;;;;;;;10.05;1.70;;;;;;;18.83;60.93;97803.50;7311507;19;130521;-36
2022/04/01 01:05:16;;;;;;;30.15;3.53;;;;;;;18.85;60.53;97804.16;7309534;19;130368;-37
2022/04/01 01:07:44;;;;;;;34.92;4.18;;;;;;;18.81;60.84;97810.66;7308242;19;129395;-36
2022/04/01 01:10:10;;;;;;;30.15;3.60;;;;;;;18.82;60.26;97804.50;7311090;19;128983;-41
2022/04/01 01:12:37;;;;;;;26.40;3.15;;;;;;;18.84;60.51;97799.91;7310404;19;129642;-39
2022/04/01 01:15:10;;;;;;;33.80;3.83;;;;;;;18.82;61.45;97794.09;7310522;19;131015;-38
2022/04/01 01:17:37;;;;;;;28.27;3.42;;;;;;;18.74;60.61;97778.47;7307243;19;131000;-38
2022/04/01 01:20:11;;;;;;;23.25;2.90;;;;;;;18.83;60.63;97797.47;7309445;19;129045;-38
2022/04/01 01:22:36;;;;;;;26.23;3.20;;;;;;;18.84;60.47;97789.50;7310493;19;129767;-42
2022/04/01 01:25:01;;;;;;;31.80;4.03;;;;;;;18.79;60.40;97786.59;7308720;19;158465;-38
2022/04/01 01:27:26;;;;;;;31.40;3.60;;;;;;;18.85;60.91;97790.31;7306435;19;157704;-41
2022/04/01 01:29:52;;;;;;;21.97;2.77;;;;;;;18.83;60.33;97781.88;7308702;19;154713;-35
2022/04/01 01:32:19;;;;;;;12.88;2.13;;;;;;;18.84;60.44;97786.09;7309755;19;128924;-40
2022/04/01 01:34:44;;;;;;;22.10;2.65;;;;;;;18.81;60.39;97784.63;7310160;19;130219;-38
2022/04/01 01:37:10;;;;;;;24.27;2.92;;;;;;;18.84;60.92;97788.72;7305803;19;161294;-34
2022/04/01 01:39:35;;;;;;;24.05;3.05;;;;;;;18.75;60.29;97759.28;7309320;19;130660;-37
2022/04/01 01:42:01;;;;;;;27.70;3.40;;;;;;;18.83;60.88;97772.28;7310551;19;129063;-42
2022/04/01 01:44:26;;;;;;;29.38;3.28;;;;;;;18.84;60.87;97768.69;7309679;19;129158;-41
2022/04/01 01:46:53;;;;;;;23.45;2.72;;;;;;;18.87;60.63;97763.16;7309890;19;130171;-42
2022/04/01 01:49:20;;;;;;;;;;;;;;;18.87;62.19;97765.75;7309031;19;130343;-39
2022/04/01 01:54:43;;;;;;;31.98;3.90;;;;;;;18.85;60.83;97764.28;7309169;19;129233;-35
2022/04/01 01:57:09;;;;;;;21.33;2.97;;;;;;;18.84;60.41;97762.69;7306423;19;130218;-37
2022/04/01 01:59:34;;;;;;;32.17;3.43;;;;;;;18.86;60.62;97760.69;7309735;19;129229;-38
2022/04/01 02:02:02;;;;;;;22.58;2.70;;;;;;;18.83;60.29;97761.84;7308997;19;128950;-35
2022/04/01 02:04:27;;;;;;;19.77;2.47;;;;;;;18.71;60.43;97751.97;7309020;19;129183;-39
2022/04/01 02:06:53;;;;;;;23.88;2.67;;;;;;;18.82;60.19;97760.25;7307334;19;155338;-40
2022/04/01 02:09:18;;;;;;;17.77;2.57;;;;;;;18.81;60.48;97763.81;7307927;19;150782;-40
2022/04/01 02:11:43;;;;;;;28.77;3.43;;;;;;;18.83;60.87;97761.03;7307670;19;154389;-43
2022/04/01 02:14:11;;;;;;;23.13;2.75;;;;;;;18.84;60.90;97763.47;7307343;19;158082;-34
2022/04/01 02:16:37;;;;;;;31.35;3.78;;;;;;;18.83;60.89;97758.44;7306480;19;130085;-34
2022/04/01 02:19:02;;;;;;;30.38;3.40;;;;;;;18.84;60.87;97753.06;7311485;19;129152;-41
2022/04/01 02:21:29;;;;;;;16.63;2.33;;;;;;;18.87;60.15;97750.16;7314353;19;154759;-38
2022/04/01 02:23:54;;;;;;;24.80;2.88;;;;;;;18.78;60.36;97745.91;7316104;19;129646;-41
2022/04/01 02:26:19;;;;;;;17.77;2.50;;;;;;;18.82;60.98;97752.44;7313910;19;158534;-41
2022/04/01 02:28:44;;;;;;;30.30;3.47;;;;;;;18.82;60.34;97762.84;7312021;19;155488;-40
2022/04/01 02:31:18;;;;;;;25.15;3.13;;;;;;;18.83;60.25;97759.25;7315620;19;128739;-41
2022/04/01 02:33:43;;;;;;;24.73;2.97;;;;;;;18.78;60.69;97756.34;7315179;19;129441;-37
2022/04/01 02:36:12;;;;;;;29.35;3.47;;;;;;;18.79;60.70;97754.56;7314786;19;129548;-38
2022/04/01 02:38:40;;;;;;;39.03;4.43;;;;;;;18.80;60.35;97750.97;7311222;19;129708;-38
2022/04/01 02:41:06;;;;;;;24.88;2.80;;;;;;;18.81;60.77;97758.59;7315430;19;129586;-40
2022/04/01 02:43:32;;;;;;;39.60;4.13;;;;;;;18.82;60.38;97759.44;7314521;19;129158;-39
2022/04/01 02:45:58;;;;;;;21.15;2.65;;;;;;;18.84;60.18;97766.06;7314271;19;129232;-34
2022/04/01 02:48:23;;;;;;;26.20;3.22;;;;;;;18.81;60.72;97753.41;7313714;19;130224;-45
2022/04/01 02:50:49;;;;;;;11.02;1.90;;;;;;;18.81;60.90;97753.41;7312566;19;154369;-41
2022/04/01 02:53:17;;;;;;;17.67;2.10;;;;;;;18.84;60.41;97755.66;7314295;19;129332;-36
2022/04/01 02:55:44;;;;;;;27.35;3.10;;;;;;;18.83;60.39;97761.03;7310157;19;129714;-39
2022/04/01 02:58:09;;;;;;;25.73;3.03;;;;;;;18.82;60.49;97755.03;7312795;19;129641;-38
2022/04/01 03:00:37;;;;;;;21.92;2.72;;;;;;;18.81;60.92;97763.81;7314291;19;129205;-42
2022/04/01 03:03:07;;;;;;;21.33;3.00;;;;;;;18.82;60.76;97765.44;7313364;19;130711;-33
2022/04/01 03:05:37;;;;;;;29.65;3.88;;;;;;;18.84;60.46;97768.69;7313615;19;130511;-34
2022/04/01 03:08:05;;;;;;;33.22;3.70;;;;;;;18.82;60.57;97768.06;7312714;19;129410;-32
2022/04/01 03:10:32;;;;;;;24.80;2.78;;;;;;;18.82;60.81;97775.03;7313824;19;129497;-36
2022/04/01 03:12:57;;;;;;;;;;;;;;;18.80;62.28;97766.56;7315207;19;129625;-33
2022/04/01 03:15:24;;;;;;;27.27;3.58;;;;;;;18.80;60.82;97767.41;7314116;19;129843;-37
2022/04/01 03:17:49;;;;;;;30.67;3.38;;;;;;;18.82;60.63;97773.25;7311126;19;129496;-37
2022/04/01 03:20:14;;;;;;;12.80;1.83;;;;;;;18.79;60.42;97775.38;7312763;19;128895;-35
2022/04/01 03:22:43;;;;;;;26.03;3.03;;;;;;;18.79;60.77;97770.97;7311964;19;158382;-36
2022/04/01 03:25:13;;;;;;;24.13;2.80;;;;;;;18.83;60.53;97769.66;7313267;19;129029;-38
2022/04/01 03:27:39;;;;;;;27.40;3.10;;;;;;;18.84;60.14;97768.69;7312388;19;129188;-34
2022/04/01 03:30:09;;;;;;;24.00;2.90;;;;;;;18.81;60.68;97769.00;7309765;19;129722;-37
2022/04/01 03:32:38;;;;;;;26.55;3.10;;;;;;;18.80;60.24;97774.38;7313726;19;131292;-35
2022/04/01 03:35:15;;;;;;;37.15;4.03;;;;;;;18.81;61.82;97778.59;7313138;19;129305;-39
2022/04/01 03:37:41;;;;;;;26.57;3.03;;;;;;;18.83;60.51;97781.88;7310048;19;130414;-41
2022/04/01 03:40:08;;;;;;;31.10;3.80;;;;;;;18.82;60.54;97801.91;7312171;19;129474;-37
2022/04/01 03:42:33;;;;;;;30.70;3.35;;;;;;;18.80;60.07;97796.03;7311190;19;130250;-37
2022/04/01 03:45:06;;;;;;;50.00;4.57;;;;;;;18.82;60.29;97786.28;7308514;19;129987;-41
2022/04/01 03:47:40;;;;;;;35.75;3.67;;;;;;;18.80;61.41;97793.44;7309159;19;130844;-43
2022/04/01 03:50:09;;;;;;;24.90;2.97;;;;;;;18.80;60.82;97792.63;7311371;19;129385;-38
2022/04/01 03:52:36;;;;;;;41.90;4.38;;;;;;;18.81;60.51;97794.22;7310689;19;129212;-35
2022/04/01 03:55:07;;;;;;;33.43;3.93;;;;;;;18.79;61.10;97804.81;7310515;19;130925;-38
2022/04/01 03:57:40;;;;;;;31.48;3.53;;;;;;;18.75;62.17;97785.31;7308728;19;129563;-40
2022/04/01 04:00:08;;;;;;;45.45;4.47;;;;;;;18.78;60.92;97792.78;7308546;19;129650;-46
2022/04/01 04:02:34;;;;;;;31.10;3.30;;;;;;;18.75;60.62;97789.69;7312080;19;129509;-38
2022/04/01 04:05:02;;;;;;;28.17;3.07;;;;;;;18.78;60.95;97784.97;7311509;19;130265;-33
2022/04/01 04:07:27;;;;;;;23.58;2.47;;;;;;;18.75;60.82;97789.69;7308889;19;129855;-42
2022/04/01 04:09:53;;;;;;;24.45;3.00;;;;;;;18.76;60.34;97786.13;7310880;19;128864;-35
2022/04/01 04:12:20;;;;;;;19.33;2.37;;;;;;;18.78;61.02;97798.00;7311639;19;129181;-42
2022/04/01 04:14:51;;;;;;;19.60;2.47;;;;;;;18.77;60.40;97798.97;7311708;19;130918;-43
2022/04/01 04:17:49;;;;;;;39.33;3.65;;;;;;;18.79;61.02;97794.41;7309545;19;130046;-43
2022/04/01 04:20:33;;;;;;;23.92;2.88;;;;;;;18.79;61.47;97802.19;7306697;19;129074;-39
2022/04/01 04:23:16;;;;;;;37.55;3.88;;;;;;;18.65;61.98;97784.66;7311397;19;130496;-41
2022/04/01 04:25:53;;;;;;;19.48;2.53;;;;;;;18.76;60.84;97801.75;7310478;19;129239;-37
2022/04/01 04:28:25;;;;;;;16.13;2.15;;;;;;;18.77;61.07;97805.97;7312680;19;129015;-38
2022/04/01 04:30:53;;;;;;;24.42;3.08;;;;;;;18.76;60.71;97812.16;7311186;19;129364;-34
2022/04/01 04:33:22;;;;;;;25.13;2.88;;;;;;;18.68;60.71;97799.94;7310010;19;129247;-38
2022/04/01 04:35:49;;;;;;;32.80;3.33;;;;;;;18.78;60.33;97813.59;7307931;19;129313;-42
2022/04/01 04:38:16;;;;;;;18.92;2.35;;;;;;;18.78;60.88;97818.81;7310538;19;129157;-39
2022/04/01 04:40:42;;;;;;;31.40;3.45;;;;;;;18.77;60.57;97818.97;7309774;19;129437;-36
2022/04/01 04:43:07;;;;;;;37.17;3.85;;;;;;;18.74;60.52;97821.91;7308559;19;131137;-36
2022/04/01 04:45:34;;;;;;;37.03;4.15;;;;;;;18.75;60.40;97826.13;7310407;19;129655;-44
2022/04/01 04:48:01;;;;;;;;;;;;;;;18.79;61.85;97836.03;7309524;19;129942;-37
2022/04/01 04:50:27;;;;;;;19.95;2.42;;;;;;;18.78;60.21;97842.25;7310112;19;130624;-50
2022/04/01 04:52:54;;;;;;;30.42;3.40;;;;;;;18.79;60.82;97841.25;7309947;19;129904;-36
2022/04/01 04:55:20;;;;;;;36.13;4.28;;;;;;;18.77;60.18;97851.03;7309895;19;129914;-43
2022/04/01 04:57:47;;;;;;;42.53;4.40;;;;;;;18.76;60.82;97853.81;7306935;19;129804;-38
2022/04/01 05:00:19;;;;;;;17.35;2.08;;;;;;;18.79;60.24;97854.28;7310782;19;129114;-41
2022/04/01 05:03:20;;;;;;;29.08;3.17;;;;;;;18.72;61.62;97853.31;7311425;19;130304;-36
2022/04/01 05:05:49;;;;;;;31.63;3.67;;;;;;;18.76;60.52;97849.41;7308111;19;129422;-39
2022/04/01 05:08:41;;;;;;;25.73;2.80;;;;;;;18.77;61.74;97856.25;7307163;19;129781;-36
2022/04/01 05:11:34;;;;;;;26.23;2.90;;;;;;;18.64;61.48;97845.53;7310725;19;129683;-33
2022/04/01 05:14:07;;;;;;;19.70;2.42;;;;;;;18.76;60.60;97849.41;7310588;19;130283;-41
2022/04/01 05:16:54;;;;;;;32.70;3.78;;;;;;;18.76;61.87;97857.19;7306226;19;129823;-42
2022/04/01 05:19:28;;;;;;;23.50;2.72;;;;;;;18.76;61.24;97854.59;7309296;19;129126;-37
2022/04/01 05:22:04;;;;;;;38.83;4.30;;;;;;;18.77;61.08;97860.63;7309613;19;129640;-46
2022/04/01 05:24:40;;;;;;;28.27;3.00;;;;;;;18.66;61.19;97859.16;7309933;19;129550;-41
2022/04/01 05:27:17;;;;;;;37.33;4.10;;;;;;;18.73;61.21;97874.94;7304323;19;140394;-43
2022/04/01 05:29:43;;;;;;;28.60;2.95;;;;;;;18.63;60.75;97867.28;7307469;19;129301;-36
2022/04/01 05:32:13;;;;;;;35.05;3.53;;;;;;;18.76;60.59;97890.25;7308395;19;129703;-37
2022/04/01 05:34:46;;;;;;;21.73;2.67;;;;;;;18.78;60.97;97878.69;7307439;19;129650;-38
2022/04/01 05:37:13;;;;;;;15.48;2.33;;;;;;;18.78;60.65;97878.69;7305088;19;129458;-37
2022/04/01 05:39:40;;;;;;;32.35;3.78;;;;;;;18.67;60.42;97868.63;7308856;19;129398;-40
2022/04/01 05:42:10;;;;;;;20.08;2.30;;;;;;;18.75;60.78;97889.44;7310782;19;129093;-40
2022/04/01 05:44:37;;;;;;;21.63;2.55;;;;;;;18.75;60.56;97892.03;7308798;19;130241;-43
2022/04/01 05:47:03;;;;;;;25.37;2.63;;;;;;;18.76;61.05;97896.25;7308403;19;129883;-44
2022/04/01 05:49:29;;;;;;;;;;;;;;;18.70;62.10;97881.28;7310165;19;129006;-40
2022/04/01 05:51:55;;;;;;;25.55;2.85;;;;;;;18.77;60.72;97895.28;7309859;19;129424;-39
2022/04/01 05:54:22;;;;;;;25.25;2.72;;;;;;;18.77;60.78;97897.91;7316481;19;129114;-46
2022/04/01 05:56:50;;;;;;;19.25;2.10;;;;;;;18.75;60.18;97894.63;7313691;19;130968;-32
2022/04/01 05:59:17;;;;;;;24.10;2.50;;;;;;;18.78;60.87;97903.91;7316061;19;128791;-38
2022/04/01 06:02:01;;;;;;;;;;;;;;;18.76;62.12;97900.66;7317070;19;129175;-37
2022/04/01 06:04:41;;;;;;;12.77;1.95;;;;;;;18.76;60.92;97904.06;7316274;19;129368;-35
2022/04/01 06:07:21;;;;;;;23.85;2.65;;;;;;;18.73;60.99;97906.16;7314605;19;129347;-41
2022/04/01 06:09:59;;;;;;;19.92;2.38;;;;;;;18.74;61.89;97913.81;7315421;19;129165;-36
2022/04/01 06:12:38;;;;;;;24.50;2.60;;;;;;;18.81;61.80;97913.97;7316606;19;129475;-42
2022/04/01 06:15:22;;;;;;;23.33;2.75;;;;;;;18.73;61.90;97911.38;7316000;19;129978;-43
2022/04/01 06:18:11;;;;;;;24.52;2.53;;;;;;;18.73;62.20;97907.00;7312982;19;158500;-42
2022/04/01 06:20:40;;;;;;;28.98;3.25;;;;;;;18.65;60.27;97888.78;7314927;19;130780;-41
2022/04/01 06:23:33;;;;;;;24.90;2.78;;;;;;;18.73;61.82;97907.00;7315559;19;129040;-42
2022/04/01 06:26:00;;;;;;;26.73;2.80;;;;;;;18.76;60.18;97917.06;7313837;19;129224;-34
2022/04/01 06:28:28;;;;;;;66.72;7.22;;;;;;;18.75;60.91;97917.25;7299066;19;131090;-33
2022/04/01 06:30:59;;;;;;;24.38;2.72;;;;;;;18.74;60.30;97919.03;7304240;19;130811;-45
2022/04/01 06:33:49;;;;;;;21.58;2.40;;;;;;;18.75;61.79;97920.66;7315739;19;129117;-34
2022/04/01 06:36:28;;;;;;;77.82;7.60;;;;;;;18.75;60.93;97931.06;7310475;19;129284;-43
2022/04/01 06:39:03;;;;;;;8.93;1.48;;;;;;;18.75;61.61;97938.88;7312321;19;130571;-44
2022/04/01 06:41:31;;;;;;;25.80;2.85;;;;;;;18.75;60.24;97931.06;7315286;19;129531;-41
2022/04/01 06:43:56;;;;;;;17.77;2.28;;;;;;;18.78;60.55;97935.13;7314712;19;128918;-43
2022/04/01 06:46:22;;;;;;;18.95;2.25;;;;;;;18.65;60.23;97909.59;7314269;19;158329;-37
2022/04/01 06:48:47;;;;;;;10.70;1.73;;;;;;;18.74;60.57;97933.84;7310600;19;158747;-38
2022/04/01 06:51:14;;;;;;;27.40;2.97;;;;;;;18.72;60.90;97936.63;7313703;19;146079;-41
2022/04/01 06:53:41;;;;;;;27.23;2.83;;;;;;;18.68;60.97;97924.88;7315308;19;129436;-41
2022/04/01 06:56:08;;;;;;;22.67;2.47;;;;;;;18.76;60.74;97937.91;7312499;19;129294;-41
2022/04/01 06:58:33;;;;;;;36.45;4.10;;;;;;;18.75;60.51;97946.69;7310711;19;130362;-37
2022/04/01 07:00:59;;;;;;;21.83;2.30;;;;;;;18.79;60.78;97953.19;7315415;19;129066;-39
2022/04/01 07:03:24;;;;;;;20.77;2.28;;;;;;;18.76;60.41;97950.91;7307636;19;153804;-40
2022/04/01 07:05:51;;;;;;;19.90;2.40;;;;;;;18.75;60.62;97951.91;7315194;19;129089;-32
2022/04/01 07:08:17;;;;;;;25.25;2.75;;;;;;;18.74;60.29;97958.06;7309633;19;131533;-39
2022/04/01 07:10:42;;;;;;;27.35;2.88;;;;;;;18.75;60.65;97962.31;7315159;19;129450;-40
2022/04/01 07:13:10;;;;;;;24.13;2.70;;;;;;;18.76;60.73;97966.53;7313991;19;129359;-39
2022/04/01 07:15:35;;;;;;;28.85;3.33;;;;;;;18.74;60.73;97960.66;7311320;19;129677;-37
2022/04/01 07:18:02;;;;;;;22.45;2.53;;;;;;;18.77;60.19;97964.75;7310163;19;130342;-38
2022/04/01 07:20:27;;;;;;;27.65;2.75;;;;;;;18.75;60.61;97962.31;7313624;19;128887;-44
2022/04/01 07:22:53;;;;;;;34.47;3.47;;;;;;;18.74;61.07;97970.28;7313438;19;128973;-38
2022/04/01 07:25:21;;;;;;;31.40;3.58;;;;;;;18.78;60.12;97972.41;7314334;19;129043;-40
2022/04/01 07:27:46;;;;;;;29.85;3.47;;;;;;;18.76;60.23;97973.56;7311033;19;130251;-34
2022/04/01 07:30:11;;;;;;;7.15;1.35;;;;;;;18.75;60.80;97977.94;7311876;19;128822;-38
2022/04/01 07:32:37;;;;;;;26.15;2.85;;;;;;;18.76;60.54;97974.34;7313430;19;129105;-39
2022/04/01 07:35:08;;;;;;;25.67;2.75;;;;;;;18.72;60.61;97973.06;7312833;19;129266;-42
2022/04/01 07:37:34;;;;;;;26.75;2.90;;;;;;;18.75;60.78;97983.13;7310703;19;129945;-40
2022/04/01 07:39:59;;;;;;;20.75;2.20;;;;;;;18.74;60.80;97976.28;7313646;19;137481;-45
2022/04/01 07:42:26;;;;;;;23.63;2.70;;;;;;;18.75;60.42;97977.09;7313203;19;140671;-40
2022/04/01 07:44:52;;;;;;;17.52;1.98;;;;;;;18.73;60.83;97974.66;7314043;19;129558;-38
2022/04/01 07:47:18;;;;;;;19.38;2.22;;;;;;;18.75;60.22;97977.09;7310835;19;129910;-39
2022/04/01 07:49:45;;;;;;;23.95;2.60;;;;;;;18.74;60.03;97971.09;7313577;19;129056;-40
2022/04/01 07:52:11;;;;;;;;;;;;;;;18.66;62.21;97968.47;7314268;19;128922;-42
2022/04/01 07:54:38;;;;;;;23.20;2.55;;;;;;;18.72;60.91;97978.25;7311787;19;130920;-41
2022/04/01 07:57:05;;;;;;;29.42;3.22;;;;;;;18.78;60.23;97982.81;7310700;19;129392;-39
2022/04/01 07:59:30;;;;;;;25.90;3.08;;;;;;;18.73;60.69;97985.09;7312629;19;129214;-40
2022/04/01 08:01:56;;;;;;;21.45;2.15;;;;;;;18.73;60.71;97998.09;7313912;19;129254;-37
2022/04/01 08:04:22;;;;;;;6.43;1.33;;;;;;;18.74;60.33;98002.31;7312342;19;129329;-37
2022/04/01 08:06:47;;;;;;;16.17;1.98;;;;;;;18.74;60.92;98007.53;7311745;19;131494;-42
2022/04/01 08:09:13;;;;;;;21.40;2.47;;;;;;;18.75;60.44;98008.34;7309515;19;154371;-37
2022/04/01 08:11:38;;;;;;;32.70;3.77;;;;;;;18.71;60.40;98015.66;7311359;19;154691;-37
2022/04/01 08:14:03;;;;;;;21.80;2.47;;;;;;;18.57;60.36;97990.25;7310970;19;158375;-40
2022/04/01 08:16:29;;;;;;;12.60;1.92;;;;;;;18.73;60.36;98016.31;7308505;19;139458;-41
2022/04/01 08:18:54;;;;;;;22.42;2.63;;;;;;;18.73;60.60;98016.31;7309471;19;129329;-42
2022/04/01 08:21:20;;;;;;;18.23;2.30;;;;;;;18.73;60.68;98013.72;7313088;19;129542;-41
2022/04/01 08:23:45;;;;;;;23.95;2.63;;;;;;;18.74;60.80;98015.34;7312616;19;129113;-43
2022/04/01 08:26:11;;;;;;;28.92;3.30;;;;;;;18.74;60.57;98017.94;7310238;19;131165;-37
2022/04/01 08:28:37;;;;;;;27.70;3.40;;;;;;;18.71;60.76;98018.25;7307329;19;129096;-39
2022/04/01 08:31:03;;;;;;;26.35;2.58;;;;;;;18.77;60.48;98024.63;7311973;19;128909;-42
2022/04/01 08:33:28;;;;;;;20.25;2.38;;;;;;;18.72;60.32;98025.13;7312743;19;129578;-39
2022/04/01 08:35:54;;;;;;;19.98;2.15;;;;;;;18.71;60.60;98023.47;7311538;19;129240;-43
2022/04/01 08:38:19;;;;;;;19.60;2.27;;;;;;;18.71;60.24;98033.88;7308146;19;155105;-42
2022/04/01 08:40:45;;;;;;;31.77;3.33;;;;;;;18.73;60.72;98041.53;7311191;19;130282;-43
2022/04/01 08:43:10;;;;;;;22.88;2.88;;;;;;;18.70;60.93;98040.06;7311411;19;129864;-42
2022/04/01 08:45:37;;;;;;;41.20;4.55;;;;;;;18.73;60.19;98041.53;7311367;19;129197;-39
2022/04/01 08:48:05;;;;;;;78.78;7.90;;;;;;;18.76;60.25;98041.25;7307109;19;129568;-43
2022/04/01 08:50:30;;;;;;;47.90;5.15;;;;;;;18.73;60.24;98042.34;7305783;19;131214;-38
2022/04/01 08:52:56;;;;;;;57.20;5.50;;;;;;;18.63;60.23;98020.84;7305028;19;129405;-42
2022/04/01 08:55:22;;;;;;;48.70;5.10;;;;;;;18.70;60.51;98045.28;7304746;19;147020;-41
2022/04/01 08:57:47;;;;;;;19.20;2.30;;;;;;;18.72;60.81;98048.53;7307467;19;129123;-43
2022/04/01 09:00:15;;;;;;;20.10;2.10;;;;;;;18.70;60.99;98047.88;7309205;19;153599;-36
2022/04/01 09:02:42;;;;;;;27.33;3.00;;;;;;;18.71;60.46;98048.72;7309110;19;158885;-42
2022/04/01 09:05:08;;;;;;;38.53;4.10;;;;;;;18.69;60.72;98048.84;7306110;19;129421;-39
2022/04/01 09:07:34;;;;;;;53.38;5.28;;;;;;;18.75;60.71;98056.03;7301917;19;130649;-41
2022/04/01 09:10:02;;;;;;;45.93;4.97;;;;;;;18.72;60.43;98058.97;7306792;19;130159;-39
2022/04/01 09:12:28;;;;;;;31.15;3.30;;;;;;;18.71;60.21;98062.50;7304560;19;130987;-39
2022/04/01 09:14:55;;;;;;;26.63;2.90;;;;;;;18.72;60.43;98058.97;7301900;19;130884;-43
2022/04/01 09:17:22;;;;;;;34.67;3.53;;;;;;;18.73;60.35;98065.78;7302371;19;129756;-39
2022/04/01 09:19:48;;;;;;;;;;;;;;;18.73;61.99;98063.19;7308047;19;128967;-38
2022/04/01 09:22:15;;;;;;;20.92;2.30;;;;;;;18.72;60.39;98061.56;7303671;19;129601;-38
2022/04/01 09:25:05;;;;;;;29.48;3.05;;;;;;;18.67;62.00;98069.03;7309996;19;130046;-42
2022/04/01 09:27:39;;;;;;;17.75;1.95;;;;;;;18.70;61.91;98068.72;7311197;19;129028;-39
2022/04/01 09:30:07;;;;;;;21.92;2.22;;;;;;;18.71;60.70;98065.13;7316598;19;129674;-39
2022/04/01 09:32:37;;;;;;;22.05;2.53;;;;;;;18.69;60.68;98061.84;7316323;19;131807;-39
2022/04/01 09:35:03;;;;;;;21.75;2.70;;;;;;;18.73;60.18;98067.56;7316749;19;129746;-38
2022/04/01 09:37:39;;;;;;;21.95;2.72;;;;;;;18.71;61.79;98072.13;7313786;19;129929;-42
2022/04/01 09:40:05;;;;;;;26.67;2.92;;;;;;;18.71;60.16;98070.31;7316149;19;128946;-42
2022/04/01 09:42:31;;;;;;;30.05;3.17;;;;;;;18.71;60.28;98072.13;7314933;19;129234;-42
2022/04/01 09:45:01;;;;;;;22.08;2.35;;;;;;;18.67;61.15;98069.03;7315087;19;129532;-40
2022/04/01 09:47:26;;;;;;;26.45;3.17;;;;;;;18.67;60.97;98057.78;7315519;19;129648;-42
2022/04/01 09:49:54;;;;;;;11.15;1.55;;;;;;;18.61;60.80;98042.81;7317603;19;129184;-39
2022/04/01 09:52:22;;;;;;;38.42;4.00;;;;;;;18.71;60.59;98070.31;7312316;19;129118;-37
2022/04/01 09:54:52;;;;;;;25.77;2.97;;;;;;;18.70;61.15;98066.09;7316208;19;130519;-37
2022/04/01 09:57:20;;;;;;;17.52;2.15;;;;;;;18.68;60.38;98065.44;7314598;19;129828;-41
2022/04/01 09:59:47;;;;;;;24.25;2.83;;;;;;;18.65;60.33;98060.56;7316939;19;129555;-38
2022/04/01 10:02:13;;;;;;;20.40;2.20;;;;;;;18.69;60.50;98067.06;7316102;19;130474;-38
2022/04/01 10:04:39;;;;;;;17.13;2.47;;;;;;;18.69;60.86;98061.84;7315527;19;129688;-42
2022/04/01 10:07:05;;;;;;;26.30;2.85;;;;;;;18.69;60.93;98067.06;7315225;19;129179;-39
2022/04/01 10:09:31;;;;;;;26.25;3.10;;;;;;;18.58;60.56;98046.53;7316523;19;129122;-42
2022/04/01 10:12:02;;;;;;;19.95;2.33;;;;;;;18.65;61.27;98070.97;7316474;19;129804;-38
2022/04/01 10:14:28;;;;;;;26.33;2.95;;;;;;;18.68;60.55;98065.44;7315085;19;129813;-42
2022/04/01 10:16:55;;;;;;;52.28;5.13;;;;;;;18.69;61.03;98064.47;7314528;19;130248;-40
2022/04/01 10:19:29;;;;;;;38.95;3.85;;;;;;;18.67;61.95;98055.19;7310405;19;131116;-39
2022/04/01 10:21:55;;;;;;;22.08;2.47;;;;;;;18.67;60.30;98069.03;7314113;19;131110;-38
2022/04/01 10:24:38;;;;;;;22.42;2.58;;;;;;;18.65;62.10;98065.75;7316151;19;129255;-38
2022/04/01 10:27:03;;;;;;;26.95;3.17;;;;;;;18.69;60.73;98080.06;7315135;19;129138;-38
2022/04/01 10:29:30;;;;;;;28.58;2.95;;;;;;;18.68;60.49;98073.25;7315520;19;129487;-43
2022/04/01 10:32:23;;;;;;;18.55;2.03;;;;;;;18.68;62.04;98081.06;7314493;19;129740;-43
2022/04/01 10:34:49;;;;;;;20.70;2.55;;;;;;;18.71;60.31;98080.72;7311819;19;131349;-40
2022/04/01 10:37:16;;;;;;;31.95;3.60;;;;;;;18.68;60.66;98077.63;7313269;19;128880;-42
2022/04/01 10:39:59;;;;;;;20.15;2.63;;;;;;;18.70;61.69;98078.28;7313535;19;129369;-42
2022/04/01 10:42:33;;;;;;;18.13;2.03;;;;;;;18.59;60.96;98060.38;7315348;19;129270;-43
2022/04/01 10:45:01;;;;;;;80.88;8.25;;;;;;;18.70;60.88;98084.31;7310387;19;130455;-43
2022/04/01 10:53:50;;;;;;;25.70;2.80;;;;;;;18.64;60.21;98073.72;7316421;19;128947;-41
2022/04/01 10:56:25;;;;;;;24.23;2.83;;;;;;;18.69;61.11;98093.09;7312173;19;130471;-41
2022/04/01 10:59:22;;;;;;;20.90;2.35;;;;;;;18.68;61.79;98090.66;7313700;19;129659;-42
2022/04/01 11:01:53;;;;;;;35.72;3.72;;;;;;;18.67;60.91;98087.25;7309377;19;129842;-42
2022/04/01 11:04:18;;;;;;;60.97;6.00;;;;;;;18.69;60.62;98094.91;7308137;19;151267;-42
2022/04/01 11:07:00;;;;;;;23.03;2.67;;;;;;;18.70;61.61;98102.53;7308178;19;158679;-42
2022/04/01 11:09:45;;;;;;;53.00;5.28;;;;;;;18.69;60.67;98107.91;7310288;19;131134;-39
2022/04/01 11:14:53;;;;;;;28.90;3.50;;;;;;;18.66;61.50;98113.44;7312023;19;149258;-38
2022/04/01 11:17:19;;;;;;;20.17;2.33;;;;;;;18.64;60.31;98111.00;7312919;19;147540;-41
2022/04/01 11:20:05;;;;;;;32.35;3.58;;;;;;;18.67;61.80;98113.28;7312324;19;129070;-42
2022/04/01 11:22:34;;;;;;;19.55;2.33;;;;;;;18.67;60.46;98121.09;7312693;19;129144;-42
2022/04/01 11:24:59;;;;;;;26.08;2.83;;;;;;;18.70;60.48;98120.75;7314713;19;129379;-40
2022/04/01 11:27:25;;;;;;;29.50;3.13;;;;;;;18.69;60.30;98119.13;7310847;19;132907;-41
2022/04/01 11:30:15;;;;;;;24.73;2.67;;;;;;;18.64;61.95;98126.63;7310715;19;129335;-41
2022/04/01 11:32:44;;;;;;;30.35;3.47;;;;;;;18.67;61.06;98121.09;7312255;19;129565;-41
2022/04/01 11:35:11;;;;;;;37.08;3.85;;;;;;;18.68;60.50;98122.69;7311231;19;129613;-42
2022/04/01 11:37:42;;;;;;;25.67;2.88;;;;;;;18.67;60.17;98113.28;7312169;19;129386;-41
2022/04/01 11:40:15;;;;;;;22.33;2.70;;;;;;;18.67;61.50;98115.88;7313318;19;129313;-41